Time;durP1;ratioP1;P1;durP2;ratioP2;P2;SDS_P1;SDS_P2;PMS_P1;PMS_P2;Temp;Humidity;BMP_temperature;BMP_pressure;BME280_temperature;BME280_humidity;BME280_pressure;Samples;Min_cycle;Max_cycle;Signal;HPM_P1;HPM_P2
2023/06/23 00:01:34;;;;;;;28.00;22.70;;;;;;;-128.00;-1.00;-1.00;103459;1256;1003022;-72
2023/06/23 00:04:01;;;;;;;25.50;22.50;;;;;;;-128.00;-1.00;-1.00;103473;1256;1012918;-71
2023/06/23 00:06:28;;;;;;;25.70;23.00;;;;;;;-128.00;-1.00;-1.00;103540;1251;1002807;-73
2023/06/23 00:08:55;;;;;;;28.10;24.10;;;;;;;-128.00;-1.00;-1.00;103445;1256;1002450;-73
2023/06/23 00:11:21;;;;;;;28.80;23.20;;;;;;;-128.00;-1.00;-1.00;103457;1251;1002463;-72
2023/06/23 00:13:49;;;;;;;26.70;23.00;;;;;;;-128.00;-1.00;-1.00;103390;1256;1002822;-73
2023/06/23 00:16:15;;;;;;;27.50;23.30;;;;;;;-128.00;-1.00;-1.00;103237;1254;1002565;-73
2023/06/23 00:18:42;;;;;;;26.60;23.00;;;;;;;-128.00;-1.00;-1.00;103463;1251;1002665;-72
2023/06/23 00:21:09;;;;;;;26.30;23.60;;;;;;;-128.00;-1.00;-1.00;103454;1251;1002854;-70
2023/06/23 00:23:36;;;;;;;24.90;22.30;;;;;;;-128.00;-1.00;-1.00;103449;1256;1002723;-71
2023/06/23 00:26:04;;;;;;;24.30;21.80;;;;;;;-128.00;-1.00;-1.00;103468;1251;1003174;-72
2023/06/23 00:28:32;;;;;;;24.00;21.50;;;;;;;-128.00;-1.00;-1.00;103481;1253;1013080;-72
2023/06/23 00:30:58;;;;;;;28.30;24.00;;;;;;;-128.00;-1.00;-1.00;103477;1251;1002748;-72
2023/06/23 00:33:25;;;;;;;28.00;24.10;;;;;;;-128.00;-1.00;-1.00;103241;1251;1002547;-72
2023/06/23 00:35:52;;;;;;;26.20;23.40;;;;;;;-128.00;-1.00;-1.00;103455;1256;1002552;-75
2023/06/23 00:38:19;;;;;;;24.80;22.20;;;;;;;-128.00;-1.00;-1.00;103465;1255;1002547;-72
2023/06/23 00:40:46;;;;;;;31.60;25.40;;;;;;;-128.00;-1.00;-1.00;103488;1251;1002502;-73
2023/06/23 00:43:16;;;;;;;27.60;22.50;;;;;;;-128.00;-1.00;-1.00;103484;1251;1002952;-72
2023/06/23 00:45:43;;;;;;;27.80;23.80;;;;;;;-128.00;-1.00;-1.00;103476;1251;1012002;-73
2023/06/23 00:48:14;;;;;;;25.80;22.90;;;;;;;-128.00;-1.00;-1.00;103525;1256;1002723;-75
2023/06/23 00:50:41;;;;;;;32.50;22.60;;;;;;;-128.00;-1.00;-1.00;103252;1260;1012596;-74
2023/06/23 00:53:09;;;;;;;28.30;23.00;;;;;;;-128.00;-1.00;-1.00;103394;1256;1012344;-75
2023/06/23 00:55:37;;;;;;;27.60;23.70;;;;;;;-128.00;-1.00;-1.00;103505;1251;1002520;-73
2023/06/23 00:58:06;;;;;;;27.20;23.20;;;;;;;-128.00;-1.00;-1.00;103477;1251;1011869;-73
2023/06/23 01:00:33;;;;;;;26.20;23.40;;;;;;;-128.00;-1.00;-1.00;103463;1256;1014257;-74
2023/06/23 01:03:01;;;;;;;31.20;24.00;;;;;;;-128.00;-1.00;-1.00;103466;1251;1002717;-72
2023/06/23 01:05:29;;;;;;;;;;;;;;;-128.00;-1.00;-1.00;103506;1251;1012418;-72
2023/06/23 01:08:13;;;;;;;30.90;23.60;;;;;;;-128.00;-1.00;-1.00;103287;1251;1010121;-72
2023/06/23 01:10:50;;;;;;;29.70;25.50;;;;;;;-128.00;-1.00;-1.00;103460;1251;1010702;-73
2023/06/23 01:13:24;;;;;;;32.10;24.10;;;;;;;-128.00;-1.00;-1.00;103465;1256;1013398;-72
2023/06/23 01:15:57;;;;;;;27.00;23.10;;;;;;;-128.00;-1.00;-1.00;103235;1259;1012808;-72
2023/06/23 01:18:38;;;;;;;32.50;24.80;;;;;;;-128.00;-1.00;-1.00;103479;1261;1013015;-71
2023/06/23 01:21:05;;;;;;;25.80;23.00;;;;;;;-128.00;-1.00;-1.00;103519;1251;1010248;-72
2023/06/23 01:23:51;;;;;;;27.50;24.10;;;;;;;-128.00;-1.00;-1.00;103163;1253;1002761;-73
2023/06/23 01:26:29;;;;;;;26.30;23.50;;;;;;;-128.00;-1.00;-1.00;103512;1256;1013282;-72
2023/06/23 01:29:00;;;;;;;26.70;23.80;;;;;;;-128.00;-1.00;-1.00;103474;1256;1013086;-71
2023/06/23 01:31:49;;;;;;;27.90;23.20;;;;;;;-128.00;-1.00;-1.00;103468;1256;1013188;-72
2023/06/23 01:34:21;;;;;;;31.30;25.40;;;;;;;-128.00;-1.00;-1.00;103454;1251;1010155;-73
2023/06/23 01:36:52;;;;;;;29.10;25.10;;;;;;;-128.00;-1.00;-1.00;103262;1255;1010381;-72
2023/06/23 01:39:19;;;;;;;27.90;24.60;;;;;;;-128.00;-1.00;-1.00;103149;1259;1012881;-73
2023/06/23 01:41:52;;;;;;;27.10;24.30;;;;;;;-128.00;-1.00;-1.00;103464;1251;1002768;-70
2023/06/23 01:44:19;;;;;;;25.50;22.60;;;;;;;-128.00;-1.00;-1.00;103501;1251;1013976;-73
2023/06/23 01:46:55;;;;;;;26.60;23.80;;;;;;;-128.00;-1.00;-1.00;103453;1251;1003075;-71
2023/06/23 01:49:24;;;;;;;27.40;24.50;;;;;;;-128.00;-1.00;-1.00;103479;1251;1010438;-73
2023/06/23 01:51:51;;;;;;;30.40;25.40;;;;;;;-128.00;-1.00;-1.00;103453;1256;1013146;-72
2023/06/23 01:54:18;;;;;;;30.30;27.00;;;;;;;-128.00;-1.00;-1.00;103415;1255;1002271;-71
2023/06/23 01:56:45;;;;;;;29.30;26.00;;;;;;;-128.00;-1.00;-1.00;103236;1253;1002682;-72
2023/06/23 01:59:12;;;;;;;30.10;26.40;;;;;;;-128.00;-1.00;-1.00;103206;1252;1002783;-73
2023/06/23 02:01:40;;;;;;;29.10;25.50;;;;;;;-128.00;-1.00;-1.00;103137;1256;1002906;-73
2023/06/23 02:04:07;;;;;;;30.60;27.20;;;;;;;-128.00;-1.00;-1.00;103109;1260;1002141;-72
2023/06/23 02:06:35;;;;;;;28.20;25.00;;;;;;;-128.00;-1.00;-1.00;103040;1256;1002577;-73
2023/06/23 02:09:04;;;;;;;27.70;25.00;;;;;;;-128.00;-1.00;-1.00;103090;1256;1002794;-73
2023/06/23 02:11:32;;;;;;;27.90;24.80;;;;;;;-128.00;-1.00;-1.00;103054;1255;1010502;-71
2023/06/23 02:13:59;;;;;;;31.20;27.70;;;;;;;-128.00;-1.00;-1.00;103048;1256;1002451;-72
2023/06/23 02:16:27;;;;;;;31.40;25.20;;;;;;;-128.00;-1.00;-1.00;103080;1260;1002523;-74
2023/06/23 02:18:56;;;;;;;30.70;27.30;;;;;;;-128.00;-1.00;-1.00;103121;1263;1002779;-72
2023/06/23 02:21:24;;;;;;;30.30;26.90;;;;;;;-128.00;-1.00;-1.00;103487;1251;1012415;-74
2023/06/23 02:23:51;;;;;;;31.00;26.70;;;;;;;-128.00;-1.00;-1.00;103303;1252;1002792;-74
2023/06/23 02:26:18;;;;;;;30.30;26.20;;;;;;;-128.00;-1.00;-1.00;103216;1253;1004298;-78
2023/06/23 02:28:49;;;;;;;32.30;27.00;;;;;;;-128.00;-1.00;-1.00;103224;1259;1002380;-73
2023/06/23 02:31:22;;;;;;;32.70;26.80;;;;;;;-128.00;-1.00;-1.00;103538;1256;1013143;-71
2023/06/23 02:33:49;;;;;;;31.20;25.80;;;;;;;-128.00;-1.00;-1.00;103319;1253;1012846;-72
2023/06/23 02:36:21;;;;;;;30.20;27.00;;;;;;;-128.00;-1.00;-1.00;103493;1251;1002470;-72
2023/06/23 02:38:49;;;;;;;29.30;26.20;;;;;;;-128.00;-1.00;-1.00;103207;1253;1011081;-72
2023/06/23 02:41:19;;;;;;;30.00;26.50;;;;;;;-128.00;-1.00;-1.00;103265;1257;1012926;-73
2023/06/23 02:43:55;;;;;;;29.10;26.20;;;;;;;-128.00;-1.00;-1.00;103220;1256;1002574;-73
2023/06/23 02:46:24;;;;;;;29.90;26.70;;;;;;;-128.00;-1.00;-1.00;103251;1251;1013467;-72
2023/06/23 02:48:51;;;;;;;29.10;26.20;;;;;;;-128.00;-1.00;-1.00;103175;1251;1010432;-74
2023/06/23 02:51:20;;;;;;;31.10;25.70;;;;;;;-128.00;-1.00;-1.00;103250;1253;1002754;-72
2023/06/23 02:53:50;;;;;;;30.60;25.50;;;;;;;-128.00;-1.00;-1.00;103450;1256;1012076;-74
2023/06/23 02:56:21;;;;;;;28.40;25.50;;;;;;;-128.00;-1.00;-1.00;103536;1251;1012517;-73
2023/06/23 02:58:49;;;;;;;27.60;24.80;;;;;;;-128.00;-1.00;-1.00;103548;1251;1013197;-73
2023/06/23 03:01:16;;;;;;;28.40;25.40;;;;;;;-128.00;-1.00;-1.00;103259;1253;1002632;-74
2023/06/23 03:03:42;;;;;;;29.50;25.00;;;;;;;-128.00;-1.00;-1.00;103316;1257;1005116;-73
2023/06/23 03:06:18;;;;;;;35.30;25.20;;;;;;;-128.00;-1.00;-1.00;103271;1257;1002437;-73
2023/06/23 03:08:47;;;;;;;36.90;24.90;;;;;;;-128.00;-1.00;-1.00;103632;1251;1013239;-74
2023/06/23 03:11:18;;;;;;;27.10;24.40;;;;;;;-128.00;-1.00;-1.00;103560;1251;1013177;-73
2023/06/23 03:13:47;;;;;;;27.90;24.90;;;;;;;-128.00;-1.00;-1.00;103539;1251;1010371;-73
2023/06/23 03:16:20;;;;;;;28.60;25.60;;;;;;;-128.00;-1.00;-1.00;103560;1251;1002865;-74
2023/06/23 03:18:50;;;;;;;31.10;25.20;;;;;;;-128.00;-1.00;-1.00;103559;1256;1012545;-75
2023/06/23 03:21:16;;;;;;;27.40;24.30;;;;;;;-128.00;-1.00;-1.00;103514;1251;1012197;-76
2023/06/23 03:23:49;;;;;;;29.40;25.20;;;;;;;-128.00;-1.00;-1.00;103260;1251;1014012;-74
2023/06/23 03:26:17;;;;;;;30.30;25.00;;;;;;;-128.00;-1.00;-1.00;103264;1251;1010502;-73
2023/06/23 03:28:46;;;;;;;32.70;24.00;;;;;;;-128.00;-1.00;-1.00;103476;1253;1002969;-73
2023/06/23 03:31:15;;;;;;;28.00;24.90;;;;;;;-128.00;-1.00;-1.00;103535;1251;1013509;-73
2023/06/23 03:33:44;;;;;;;27.60;24.70;;;;;;;-128.00;-1.00;-1.00;103266;1260;1013408;-74
2023/06/23 03:36:15;;;;;;;27.60;24.80;;;;;;;-128.00;-1.00;-1.00;103534;1256;1013209;-74
2023/06/23 03:39:02;;;;;;;35.90;25.50;;;;;;;-128.00;-1.00;-1.00;103529;1251;1009584;-74
2023/06/23 03:41:31;;;;;;;30.60;23.40;;;;;;;-128.00;-1.00;-1.00;103472;1251;1010596;-74
2023/06/23 03:43:59;;;;;;;31.70;24.60;;;;;;;-128.00;-1.00;-1.00;103252;1257;1002433;-73
2023/06/23 03:46:29;;;;;;;26.90;22.20;;;;;;;-128.00;-1.00;-1.00;103256;1257;1012828;-72
2023/06/23 03:48:57;;;;;;;27.40;24.10;;;;;;;-128.00;-1.00;-1.00;103462;1251;1015938;-73
2023/06/23 03:51:24;;;;;;;25.70;22.70;;;;;;;-128.00;-1.00;-1.00;103186;1252;1003535;-73
2023/06/23 03:53:51;;;;;;;26.90;21.20;;;;;;;-128.00;-1.00;-1.00;103348;1252;1002543;-73
2023/06/23 03:56:18;;;;;;;23.80;20.90;;;;;;;-128.00;-1.00;-1.00;103222;1257;1002471;-80
2023/06/23 03:58:45;;;;;;;23.60;20.40;;;;;;;-128.00;-1.00;-1.00;103241;1258;1002538;-73
2023/06/23 04:01:13;;;;;;;28.70;22.70;;;;;;;-128.00;-1.00;-1.00;103285;1253;1002819;-73
2023/06/23 04:03:39;;;;;;;23.00;20.60;;;;;;;-128.00;-1.00;-1.00;103529;1251;1002798;-73
2023/06/23 04:06:07;;;;;;;24.50;19.30;;;;;;;-128.00;-1.00;-1.00;103236;1258;1002692;-73
2023/06/23 04:08:34;;;;;;;25.40;21.20;;;;;;;-128.00;-1.00;-1.00;103520;1255;1002417;-73
2023/06/23 04:11:01;;;;;;;23.30;21.00;;;;;;;-128.00;-1.00;-1.00;103576;1256;1002957;-74
2023/06/23 04:13:28;;;;;;;21.40;19.20;;;;;;;-128.00;-1.00;-1.00;103343;1251;1003080;-74
2023/06/23 04:15:56;;;;;;;24.00;18.80;;;;;;;-128.00;-1.00;-1.00;103541;1251;1010376;-74
2023/06/23 04:18:24;;;;;;;23.00;20.70;;;;;;;-128.00;-1.00;-1.00;103308;1253;1003676;-74
2023/06/23 04:20:52;;;;;;;24.90;21.20;;;;;;;-128.00;-1.00;-1.00;103582;1251;1002771;-74
2023/06/23 04:23:20;;;;;;;22.60;20.30;;;;;;;-128.00;-1.00;-1.00;103559;1251;1012655;-73
2023/06/23 04:25:48;;;;;;;21.00;18.80;;;;;;;-128.00;-1.00;-1.00;103282;1251;1004081;-73
2023/06/23 04:28:16;;;;;;;;;;;;;;;-128.00;-1.00;-1.00;103443;1253;1002293;-74
2023/06/23 04:30:43;;;;;;;19.30;17.40;;;;;;;-128.00;-1.00;-1.00;103471;1251;1002714;-72
2023/06/23 04:33:10;;;;;;;19.40;17.30;;;;;;;-128.00;-1.00;-1.00;103484;1256;1002730;-73
2023/06/23 04:35:38;;;;;;;;;;;;;;;-128.00;-1.00;-1.00;103352;1257;1003044;-74
2023/06/23 04:38:08;;;;;;;19.40;17.60;;;;;;;-128.00;-1.00;-1.00;103487;1256;1002842;-74
2023/06/23 04:40:39;;;;;;;22.90;18.50;;;;;;;-128.00;-1.00;-1.00;103527;1253;1010333;-73
2023/06/23 04:43:14;;;;;;;23.30;19.20;;;;;;;-128.00;-1.00;-1.00;103561;1253;1010660;-75
2023/06/23 04:45:51;;;;;;;18.10;16.40;;;;;;;-128.00;-1.00;-1.00;103613;1251;1013258;-74
2023/06/23 04:48:23;;;;;;;22.20;20.20;;;;;;;-128.00;-1.00;-1.00;103245;1264;1011801;-74
2023/06/23 04:50:51;;;;;;;19.00;17.00;;;;;;;-128.00;-1.00;-1.00;103591;1251;1012525;-73
2023/06/23 04:53:21;;;;;;;26.30;18.20;;;;;;;-128.00;-1.00;-1.00;103556;1251;1009290;-73
2023/06/23 04:55:51;;;;;;;21.50;18.20;;;;;;;-128.00;-1.00;-1.00;103504;1251;1011201;-77
2023/06/23 04:58:18;;;;;;;18.60;16.70;;;;;;;-128.00;-1.00;-1.00;103284;1251;1012831;-74
2023/06/23 05:00:45;;;;;;;19.00;17.00;;;;;;;-128.00;-1.00;-1.00;103285;1257;1003072;-74
2023/06/23 05:03:12;;;;;;;19.10;17.20;;;;;;;-128.00;-1.00;-1.00;103216;1254;1002193;-74
2023/06/23 05:05:41;;;;;;;19.20;17.10;;;;;;;-128.00;-1.00;-1.00;103213;1260;1003436;-74
2023/06/23 05:08:08;;;;;;;27.20;17.50;;;;;;;-128.00;-1.00;-1.00;103123;1254;1012500;-76
2023/06/23 05:10:35;;;;;;;21.30;16.90;;;;;;;-128.00;-1.00;-1.00;103185;1259;1002101;-74
2023/06/23 05:13:01;;;;;;;16.70;15.20;;;;;;;-128.00;-1.00;-1.00;103215;1259;1002467;-72
2023/06/23 05:15:28;;;;;;;26.30;18.30;;;;;;;-128.00;-1.00;-1.00;103253;1254;1002995;-73
2023/06/23 05:17:56;;;;;;;22.70;18.00;;;;;;;-128.00;-1.00;-1.00;103209;1254;1002733;-73
2023/06/23 05:20:23;;;;;;;25.40;18.10;;;;;;;-128.00;-1.00;-1.00;103213;1254;1012270;-73
2023/06/23 05:22:51;;;;;;;17.00;15.40;;;;;;;-128.00;-1.00;-1.00;103141;1259;1002574;-76
2023/06/23 05:25:18;;;;;;;16.30;14.60;;;;;;;-128.00;-1.00;-1.00;103325;1259;1002949;-75
2023/06/23 05:27:45;;;;;;;16.90;15.20;;;;;;;-128.00;-1.00;-1.00;103223;1256;1002518;-75
2023/06/23 05:30:18;;;;;;;17.30;15.40;;;;;;;-128.00;-1.00;-1.00;103126;1254;1002591;-78
2023/06/23 05:32:47;;;;;;;16.60;14.90;;;;;;;-128.00;-1.00;-1.00;103014;1254;1011053;-77
2023/06/23 05:35:14;;;;;;;20.30;14.50;;;;;;;-128.00;-1.00;-1.00;103492;1256;1013295;-72
2023/06/23 05:37:41;;;;;;;16.40;14.00;;;;;;;-128.00;-1.00;-1.00;103308;1257;1002444;-72
2023/06/23 05:40:09;;;;;;;15.90;14.10;;;;;;;-128.00;-1.00;-1.00;103289;1251;1002643;-74
2023/06/23 05:42:36;;;;;;;25.70;15.10;;;;;;;-128.00;-1.00;-1.00;103568;1251;1002424;-75
2023/06/23 05:45:04;;;;;;;16.00;14.50;;;;;;;-128.00;-1.00;-1.00;103511;1251;1003316;-74
2023/06/23 05:47:35;;;;;;;14.80;13.40;;;;;;;-128.00;-1.00;-1.00;103459;1251;1003293;-73
2023/06/23 05:50:02;;;;;;;13.20;11.90;;;;;;;-128.00;-1.00;-1.00;103553;1251;1012229;-73
2023/06/23 05:52:29;;;;;;;14.50;13.10;;;;;;;-128.00;-1.00;-1.00;103234;1251;1002961;-75
2023/06/23 05:54:56;;;;;;;;;;;;;;;-128.00;-1.00;-1.00;103286;1251;1003079;-72
2023/06/23 05:57:28;;;;;;;17.80;12.30;;;;;;;-128.00;-1.00;-1.00;103216;1253;1002540;-74
2023/06/23 06:00:09;;;;;;;13.80;12.50;;;;;;;-128.00;-1.00;-1.00;103155;1253;1012484;-73
2023/06/23 06:02:40;;;;;;;37.50;13.30;;;;;;;-128.00;-1.00;-1.00;103501;1251;1012230;-75
2023/06/23 06:05:10;;;;;;;25.20;11.90;;;;;;;-128.00;-1.00;-1.00;103536;1256;1002017;-73
2023/06/23 06:07:37;;;;;;;13.50;10.80;;;;;;;-128.00;-1.00;-1.00;103198;1251;1010056;-75
2023/06/23 06:10:06;;;;;;;13.30;11.90;;;;;;;-128.00;-1.00;-1.00;103273;1251;1003205;-75
2023/06/23 06:12:33;;;;;;;13.40;11.00;;;;;;;-128.00;-1.00;-1.00;103527;1251;1013082;-75
2023/06/23 06:15:00;;;;;;;15.30;11.60;;;;;;;-128.00;-1.00;-1.00;103306;1259;1003102;-77
2023/06/23 06:17:27;;;;;;;15.00;10.80;;;;;;;-128.00;-1.00;-1.00;103503;1251;1002943;-72
2023/06/23 06:19:56;;;;;;;14.10;11.20;;;;;;;-128.00;-1.00;-1.00;103505;1251;1003490;-79
2023/06/23 06:22:22;;;;;;;19.90;11.50;;;;;;;-128.00;-1.00;-1.00;103584;1251;1011846;-77
2023/06/23 06:24:49;;;;;;;18.80;10.40;;;;;;;-128.00;-1.00;-1.00;103525;1256;1004705;-74
2023/06/23 06:27:16;;;;;;;11.40;9.90;;;;;;;-128.00;-1.00;-1.00;103278;1257;1002889;-75
2023/06/23 06:29:42;;;;;;;9.90;9.00;;;;;;;-128.00;-1.00;-1.00;103155;1251;1003236;-74
2023/06/23 06:32:09;;;;;;;13.70;10.30;;;;;;;-128.00;-1.00;-1.00;103475;1251;1002835;-76
2023/06/23 06:34:36;;;;;;;10.70;9.80;;;;;;;-128.00;-1.00;-1.00;103216;1251;1002582;-73
2023/06/23 06:37:03;;;;;;;11.90;10.10;;;;;;;-128.00;-1.00;-1.00;103308;1251;1003137;-75
2023/06/23 06:39:30;;;;;;;11.80;10.30;;;;;;;-128.00;-1.00;-1.00;103311;1257;1002744;-75
2023/06/23 06:41:57;;;;;;;;;;;;;;;-128.00;-1.00;-1.00;103557;1251;1002768;-75
2023/06/23 06:44:24;;;;;;;10.60;9.60;;;;;;;-128.00;-1.00;-1.00;103284;1256;1002448;-76
2023/06/23 06:46:52;;;;;;;11.40;10.20;;;;;;;-128.00;-1.00;-1.00;103252;1257;1012098;-74
2023/06/23 06:49:19;;;;;;;11.50;10.40;;;;;;;-128.00;-1.00;-1.00;103506;1256;1002379;-79
2023/06/23 06:51:46;;;;;;;12.80;11.20;;;;;;;-128.00;-1.00;-1.00;103521;1256;1002438;-75
2023/06/23 06:54:13;;;;;;;13.60;11.00;;;;;;;-128.00;-1.00;-1.00;103482;1251;1002447;-75
2023/06/23 06:56:40;;;;;;;10.60;9.70;;;;;;;-128.00;-1.00;-1.00;103273;1254;1002913;-77
2023/06/23 06:59:07;;;;;;;21.80;10.20;;;;;;;-128.00;-1.00;-1.00;103486;1256;1002808;-74
2023/06/23 07:01:38;;;;;;;12.00;10.40;;;;;;;-128.00;-1.00;-1.00;103539;1256;1001930;-77
2023/06/23 07:04:05;;;;;;;12.40;11.20;;;;;;;-128.00;-1.00;-1.00;103284;1257;1012115;-76
2023/06/23 07:06:33;;;;;;;13.00;9.90;;;;;;;-128.00;-1.00;-1.00;103520;1251;1002405;-77
2023/06/23 07:09:00;;;;;;;10.60;9.60;;;;;;;-128.00;-1.00;-1.00;103555;1251;1010040;-74
2023/06/23 07:11:28;;;;;;;14.90;9.70;;;;;;;-128.00;-1.00;-1.00;103482;1251;1002914;-75
2023/06/23 07:13:55;;;;;;;14.00;9.60;;;;;;;-128.00;-1.00;-1.00;103551;1256;1002888;-75
2023/06/23 07:16:22;;;;;;;16.30;10.80;;;;;;;-128.00;-1.00;-1.00;103505;1256;1002743;-74
2023/06/23 07:18:48;;;;;;;11.90;10.30;;;;;;;-128.00;-1.00;-1.00;103469;1251;1003347;-79
2023/06/23 07:21:15;;;;;;;10.90;9.70;;;;;;;-128.00;-1.00;-1.00;103540;1253;1001928;-76
2023/06/23 07:23:42;;;;;;;10.00;8.00;;;;;;;-128.00;-1.00;-1.00;103511;1251;1003202;-76
2023/06/23 07:26:08;;;;;;;11.40;8.10;;;;;;;-128.00;-1.00;-1.00;103304;1251;1002441;-73
2023/06/23 07:28:35;;;;;;;11.50;9.10;;;;;;;-128.00;-1.00;-1.00;103525;1255;1002725;-76
2023/06/23 07:31:02;;;;;;;8.80;7.90;;;;;;;-128.00;-1.00;-1.00;103518;1253;1004187;-76
2023/06/23 07:33:29;;;;;;;11.30;7.50;;;;;;;-128.00;-1.00;-1.00;103502;1253;1002508;-75
2023/06/23 07:35:55;;;;;;;8.90;7.40;;;;;;;-128.00;-1.00;-1.00;103394;1253;1003060;-75
2023/06/23 07:38:22;;;;;;;9.50;7.90;;;;;;;-128.00;-1.00;-1.00;103261;1259;1002860;-76
2023/06/23 07:40:49;;;;;;;25.10;8.00;;;;;;;-128.00;-1.00;-1.00;103443;1256;1002402;-74
2023/06/23 07:43:16;;;;;;;11.00;7.10;;;;;;;-128.00;-1.00;-1.00;103441;1252;1002614;-77
2023/06/23 07:45:43;;;;;;;13.10;8.00;;;;;;;-128.00;-1.00;-1.00;103411;1253;1002447;-79
2023/06/23 07:48:11;;;;;;;8.90;7.60;;;;;;;-128.00;-1.00;-1.00;103425;1253;1010607;-77
2023/06/23 07:50:38;;;;;;;9.70;7.00;;;;;;;-128.00;-1.00;-1.00;103441;1255;1002648;-78
2023/06/23 07:53:05;;;;;;;28.70;7.60;;;;;;;-128.00;-1.00;-1.00;103463;1256;1002786;-75
2023/06/23 07:55:32;;;;;;;9.90;6.80;;;;;;;-128.00;-1.00;-1.00;103461;1252;1002888;-74
2023/06/23 07:57:59;;;;;;;8.90;6.30;;;;;;;-128.00;-1.00;-1.00;103487;1252;1003040;-77
2023/06/23 08:00:27;;;;;;;9.10;6.70;;;;;;;-128.00;-1.00;-1.00;103423;1253;1002578;-73
2023/06/23 08:02:54;;;;;;;7.80;6.50;;;;;;;-128.00;-1.00;-1.00;103478;1255;1002716;-75
2023/06/23 08:05:21;;;;;;;8.50;6.40;;;;;;;-128.00;-1.00;-1.00;103492;1253;1002744;-77
2023/06/23 08:07:48;;;;;;;16.90;8.20;;;;;;;-128.00;-1.00;-1.00;103459;1252;1002719;-75
2023/06/23 08:10:15;;;;;;;8.60;7.70;;;;;;;-128.00;-1.00;-1.00;103458;1253;1002883;-75
2023/06/23 08:12:42;;;;;;;9.60;7.10;;;;;;;-128.00;-1.00;-1.00;103407;1253;1002396;-75
2023/06/23 08:15:09;;;;;;;12.70;7.30;;;;;;;-128.00;-1.00;-1.00;103512;1255;1002292;-77
2023/06/23 08:17:37;;;;;;;12.00;7.60;;;;;;;-128.00;-1.00;-1.00;103411;1256;1002903;-78
2023/06/23 08:20:06;;;;;;;10.40;8.10;;;;;;;-128.00;-1.00;-1.00;103448;1253;1012752;-76
2023/06/23 08:22:33;;;;;;;9.00;8.10;;;;;;;-128.00;-1.00;-1.00;103492;1253;1002909;-74
2023/06/23 08:25:00;;;;;;;15.40;7.80;;;;;;;-128.00;-1.00;-1.00;103462;1253;1003065;-76
2023/06/23 08:27:27;;;;;;;9.50;7.80;;;;;;;-128.00;-1.00;-1.00;103513;1256;1002649;-78
2023/06/23 08:29:54;;;;;;;14.40;7.80;;;;;;;-128.00;-1.00;-1.00;103477;1256;1002416;-75
2023/06/23 08:32:21;;;;;;;15.70;9.30;;;;;;;-128.00;-1.00;-1.00;103527;1253;1002562;-76
2023/06/23 08:34:48;;;;;;;18.50;8.00;;;;;;;-128.00;-1.00;-1.00;103495;1253;1004244;-78
2023/06/23 08:37:15;;;;;;;11.80;8.90;;;;;;;-128.00;-1.00;-1.00;103512;1253;1002460;-76
2023/06/23 08:39:42;;;;;;;15.80;7.20;;;;;;;-128.00;-1.00;-1.00;103503;1256;1002811;-78
2023/06/23 08:42:09;;;;;;;9.70;8.50;;;;;;;-128.00;-1.00;-1.00;103501;1256;1002512;-76
2023/06/23 08:44:37;;;;;;;12.50;8.40;;;;;;;-128.00;-1.00;-1.00;103372;1252;1002718;-78
2023/06/23 08:47:05;;;;;;;15.50;8.40;;;;;;;-128.00;-1.00;-1.00;103361;1253;1002765;-77
2023/06/23 08:49:37;;;;;;;10.10;7.70;;;;;;;-128.00;-1.00;-1.00;103260;1254;1011546;-77
2023/06/23 08:52:04;;;;;;;10.80;9.20;;;;;;;-128.00;-1.00;-1.00;103249;1254;1012839;-78
2023/06/23 08:54:31;;;;;;;13.60;8.70;;;;;;;-128.00;-1.00;-1.00;103251;1259;1002767;-75
2023/06/23 08:56:57;;;;;;;12.00;8.70;;;;;;;-128.00;-1.00;-1.00;103224;1254;1003771;-78
2023/06/23 08:59:24;;;;;;;10.30;8.90;;;;;;;-128.00;-1.00;-1.00;103229;1254;1002754;-76
2023/06/23 09:01:51;;;;;;;9.30;8.50;;;;;;;-128.00;-1.00;-1.00;103133;1254;1002432;-80
2023/06/23 09:04:19;;;;;;;9.80;8.60;;;;;;;-128.00;-1.00;-1.00;103252;1254;1002747;-78
2023/06/23 09:06:46;;;;;;;12.50;9.20;;;;;;;-128.00;-1.00;-1.00;103262;1258;1002712;-75
2023/06/23 09:09:14;;;;;;;11.50;9.50;;;;;;;-128.00;-1.00;-1.00;103266;1254;1013133;-77
2023/06/23 09:11:42;;;;;;;9.40;8.50;;;;;;;-128.00;-1.00;-1.00;103257;1254;1002209;-75
2023/06/23 09:14:10;;;;;;;10.70;9.60;;;;;;;-128.00;-1.00;-1.00;103183;1254;1002304;-76
2023/06/23 09:16:38;;;;;;;13.80;9.70;;;;;;;-128.00;-1.00;-1.00;103248;1254;1002493;-75
2023/06/23 09:19:05;;;;;;;10.40;9.30;;;;;;;-128.00;-1.00;-1.00;103276;1258;1012742;-76
2023/06/23 09:21:36;;;;;;;9.70;8.70;;;;;;;-128.00;-1.00;-1.00;103271;1254;1002798;-78
2023/06/23 09:24:06;;;;;;;10.20;9.30;;;;;;;-128.00;-1.00;-1.00;103231;1254;1010102;-75
2023/06/23 09:26:52;;;;;;;12.80;10.20;;;;;;;-128.00;-1.00;-1.00;103287;1253;1010365;-75
2023/06/23 09:29:21;;;;;;;14.00;10.10;;;;;;;-128.00;-1.00;-1.00;103382;1252;1013080;-77
2023/06/23 09:31:49;;;;;;;15.00;9.90;;;;;;;-128.00;-1.00;-1.00;103546;1256;1013071;-78
2023/06/23 09:34:24;;;;;;;11.50;9.80;;;;;;;-128.00;-1.00;-1.00;103307;1253;1002450;-75
2023/06/23 09:37:04;;;;;;;9.50;8.70;;;;;;;-128.00;-1.00;-1.00;103533;1256;1009592;-73
2023/06/23 09:39:38;;;;;;;13.20;9.50;;;;;;;-128.00;-1.00;-1.00;103564;1251;1011483;-77
2023/06/23 09:42:08;;;;;;;11.30;10.10;;;;;;;-128.00;-1.00;-1.00;103399;1259;1013236;-77
2023/06/23 09:44:37;;;;;;;15.60;11.30;;;;;;;-128.00;-1.00;-1.00;103516;1256;1013731;-77
2023/06/23 09:47:04;;;;;;;14.00;9.90;;;;;;;-128.00;-1.00;-1.00;103546;1251;1004014;-78
2023/06/23 09:49:39;;;;;;;12.10;10.10;;;;;;;-128.00;-1.00;-1.00;103526;1251;1002402;-72
2023/06/23 09:52:06;;;;;;;11.60;10.50;;;;;;;-128.00;-1.00;-1.00;103494;1251;1011027;-75
2023/06/23 09:54:36;;;;;;;11.40;10.30;;;;;;;-128.00;-1.00;-1.00;103542;1256;1013413;-77
2023/06/23 09:57:13;;;;;;;12.20;10.10;;;;;;;-128.00;-1.00;-1.00;103527;1256;1012252;-79
2023/06/23 09:59:40;;;;;;;10.80;9.50;;;;;;;-128.00;-1.00;-1.00;103335;1260;1013197;-76
2023/06/23 10:02:07;;;;;;;;;;;;;;;-128.00;-1.00;-1.00;103512;1253;1003377;-76
2023/06/23 10:04:35;;;;;;;12.30;9.90;;;;;;;-128.00;-1.00;-1.00;103586;1256;1002865;-76
2023/06/23 10:07:28;;;;;;;;;;;;;;;-128.00;-1.00;-1.00;103542;1256;1002979;-74
2023/06/23 10:09:59;;;;;;;11.40;10.40;;;;;;;-128.00;-1.00;-1.00;103473;1252;1013130;-81
2023/06/23 10:12:46;;;;;;;18.50;10.60;;;;;;;-128.00;-1.00;-1.00;103516;1253;1013117;-77
2023/06/23 10:15:13;;;;;;;11.50;10.20;;;;;;;-128.00;-1.00;-1.00;103516;1253;1002764;-78
2023/06/23 10:17:41;;;;;;;12.60;10.30;;;;;;;-128.00;-1.00;-1.00;103509;1252;1002635;-78
2023/06/23 10:20:08;;;;;;;11.60;10.50;;;;;;;-128.00;-1.00;-1.00;103468;1253;1003628;-77
2023/06/23 10:22:36;;;;;;;11.20;9.10;;;;;;;-128.00;-1.00;-1.00;103533;1256;1002587;-79
2023/06/23 10:25:03;;;;;;;10.80;9.20;;;;;;;-128.00;-1.00;-1.00;103323;1253;1002954;-81
2023/06/23 10:27:31;;;;;;;10.60;9.50;;;;;;;-128.00;-1.00;-1.00;103235;1256;1011008;-79
2023/06/23 10:30:00;;;;;;;9.30;8.40;;;;;;;-128.00;-1.00;-1.00;102952;1259;1002821;-80
2023/06/23 10:32:33;;;;;;;10.90;8.70;;;;;;;-128.00;-1.00;-1.00;103002;1264;1012848;-74
2023/06/23 10:35:04;;;;;;;9.80;8.60;;;;;;;-128.00;-1.00;-1.00;103182;1256;1012111;-77
2023/06/23 10:37:31;;;;;;;9.70;8.70;;;;;;;-128.00;-1.00;-1.00;103196;1260;1012152;-77
2023/06/23 10:40:14;;;;;;;10.10;9.20;;;;;;;-128.00;-1.00;-1.00;102953;1257;1011121;-76
2023/06/23 10:42:41;;;;;;;12.40;9.80;;;;;;;-128.00;-1.00;-1.00;103153;1261;1011573;-77
2023/06/23 10:45:08;;;;;;;16.40;10.20;;;;;;;-128.00;-1.00;-1.00;103167;1260;1002566;-76
2023/06/23 10:47:34;;;;;;;10.80;8.70;;;;;;;-128.00;-1.00;-1.00;103052;1262;1003218;-77
2023/06/23 10:50:01;;;;;;;10.20;9.10;;;;;;;-128.00;-1.00;-1.00;103222;1261;1002587;-79
2023/06/23 10:52:28;;;;;;;;;;;;;;;-128.00;-1.00;-1.00;103123;1258;1002590;-79
2023/06/23 10:54:58;;;;;;;12.70;9.90;;;;;;;-128.00;-1.00;-1.00;102952;1256;1003285;-76
2023/06/23 10:57:25;;;;;;;11.90;9.30;;;;;;;-128.00;-1.00;-1.00;103237;1256;1013754;-76
2023/06/23 10:59:58;;;;;;;14.60;8.60;;;;;;;-128.00;-1.00;-1.00;103516;1251;1002866;-77
2023/06/23 11:02:25;;;;;;;12.90;10.00;;;;;;;-128.00;-1.00;-1.00;103409;1254;1013073;-77
2023/06/23 11:04:53;;;;;;;20.20;10.90;;;;;;;-128.00;-1.00;-1.00;103620;1253;1002801;-80
2023/06/23 11:07:19;;;;;;;13.60;10.10;;;;;;;-128.00;-1.00;-1.00;103587;1253;1002995;-77
2023/06/23 11:09:58;;;;;;;11.40;10.00;;;;;;;-128.00;-1.00;-1.00;103516;1256;1002331;-77
2023/06/23 11:12:48;;;;;;;13.20;9.60;;;;;;;-128.00;-1.00;-1.00;103564;1251;1013162;-78
2023/06/23 11:15:16;;;;;;;10.50;9.20;;;;;;;-128.00;-1.00;-1.00;103542;1251;1016441;-76